Time;durP1;ratioP1;P1;durP2;ratioP2;P2;SDS_P1;SDS_P2;PMS_P1;PMS_P2;Temp;Humidity;BMP_temperature;BMP_pressure;BME280_temperature;BME280_humidity;BME280_pressure;Samples;Min_cycle;Max_cycle;Signal;HPM_P1;HPM_P2
2022/11/13 00:00:27;;;;;;;20.53;13.43;;;4.40;99.90;;;;;;5093126;28;20450;-68
2022/11/13 00:02:54;;;;;;;20.00;12.50;;;4.30;99.90;;;;;;5092432;28;20470;-68
2022/11/13 00:05:22;;;;;;;18.37;12.40;;;4.40;99.90;;;;;;5092856;28;20453;-68
2022/11/13 00:07:48;;;;;;;20.37;13.20;;;4.30;99.90;;;;;;5095425;28;20818;-68
2022/11/13 00:10:16;;;;;;;18.40;13.20;;;4.30;99.90;;;;;;5096738;28;20442;-68
2022/11/13 00:12:43;;;;;;;19.80;14.07;;;4.30;99.90;;;;;;5113097;28;20466;-68
2022/11/13 00:15:10;;;;;;;19.00;13.43;;;4.30;99.90;;;;;;5107303;28;20473;-68
2022/11/13 00:17:37;;;;;;;18.33;12.57;;;4.30;99.90;;;;;;5092292;28;21026;-68
2022/11/13 00:20:04;;;;;;;19.00;12.87;;;4.30;99.90;;;;;;5092615;28;20980;-68
2022/11/13 00:22:32;;;;;;;18.43;12.60;;;4.40;99.90;;;;;;5104675;28;20553;-68
2022/11/13 00:24:59;;;;;;;22.80;13.70;;;4.40;99.90;;;;;;5092508;28;20962;-68
2022/11/13 00:27:26;;;;;;;16.57;13.33;;;4.30;99.90;;;;;;5092480;28;20454;-68
2022/11/13 00:29:52;;;;;;;16.40;12.20;;;4.40;99.90;;;;;;5092799;28;20501;-68
2022/11/13 00:32:19;;;;;;;17.00;12.40;;;4.40;99.90;;;;;;5092043;28;20446;-68
2022/11/13 00:34:46;;;;;;;16.80;11.90;;;4.40;99.90;;;;;;5092217;28;20480;-68
2022/11/13 00:37:13;;;;;;;22.90;13.30;;;4.40;99.90;;;;;;5092106;28;20844;-68
2022/11/13 00:39:41;;;;;;;16.97;12.50;;;4.40;99.90;;;;;;5110608;28;20444;-68
2022/11/13 00:42:07;;;;;;;19.77;12.67;;;4.40;99.90;;;;;;5112268;28;20446;-68
2022/11/13 00:44:34;;;;;;;17.43;13.40;;;4.30;99.90;;;;;;5111537;28;20449;-68
2022/11/13 00:47:00;;;;;;;17.70;13.20;;;4.40;99.90;;;;;;5111527;28;20950;-68
2022/11/13 00:49:27;;;;;;;19.67;13.30;;;4.40;99.90;;;;;;5102617;28;20860;-68
2022/11/13 00:51:54;;;;;;;20.13;13.23;;;4.40;99.90;;;;;;5096310;28;20450;-68
2022/11/13 00:54:20;;;;;;;18.30;12.60;;;4.40;99.90;;;;;;5095667;28;20896;-68
2022/11/13 00:56:48;;;;;;;19.33;13.00;;;4.40;99.90;;;;;;5109603;28;20837;-68
2022/11/13 00:59:15;;;;;;;21.00;12.57;;;4.40;99.90;;;;;;5112228;28;20460;-68
2022/11/13 01:01:42;;;;;;;17.70;12.53;;;4.40;99.90;;;;;;5093306;28;20860;-68
2022/11/13 01:04:08;;;;;;;22.00;12.23;;;4.40;99.90;;;;;;5090535;28;20818;-68
2022/11/13 01:06:35;;;;;;;19.23;12.80;;;4.30;99.90;;;;;;5094319;28;20457;-68
2022/11/13 01:09:02;;;;;;;22.23;13.57;;;4.30;99.90;;;;;;5091848;28;20515;-68
2022/11/13 01:11:30;;;;;;;18.37;12.73;;;4.30;99.90;;;;;;5090623;28;20461;-68
2022/11/13 01:13:58;;;;;;;20.63;13.03;;;4.30;99.90;;;;;;5091623;28;20481;-68
2022/11/13 01:16:27;;;;;;;19.80;13.80;;;4.30;99.90;;;;;;5091767;28;20458;-67
2022/11/13 01:18:54;;;;;;;15.50;12.40;;;4.30;99.90;;;;;;5091661;28;20487;-68
2022/11/13 01:21:23;;;;;;;16.73;11.97;;;4.30;99.90;;;;;;5103992;28;20456;-68
2022/11/13 01:23:50;;;;;;;18.70;12.43;;;4.30;99.90;;;;;;5100693;28;20481;-68
2022/11/13 01:26:19;;;;;;;19.17;12.63;;;4.30;99.90;;;;;;5091540;28;20455;-68
2022/11/13 01:28:46;;;;;;;20.37;13.80;;;4.30;99.90;;;;;;5091740;28;20447;-68
2022/11/13 01:31:16;;;;;;;19.80;13.17;;;4.30;99.90;;;;;;5091355;28;20445;-68
2022/11/13 01:33:43;;;;;;;16.03;12.10;;;4.30;99.90;;;;;;5091429;28;20900;-68
2022/11/13 01:36:13;;;;;;;20.67;12.87;;;4.30;99.90;;;;;;5103133;28;20535;-68
2022/11/13 01:38:40;;;;;;;19.20;13.10;;;4.30;99.90;;;;;;5107227;28;20479;-68
2022/11/13 01:41:07;;;;;;;20.40;13.63;;;4.30;99.90;;;;;;5103594;28;20454;-68
2022/11/13 01:43:36;;;;;;;14.50;11.00;;;4.30;99.90;;;;;;5091387;28;20475;-68
2022/11/13 01:46:16;;;;;;;17.60;12.23;;;4.30;99.90;;;;;;5091189;28;20455;-68
2022/11/13 01:48:46;;;;;;;19.27;12.70;;;4.20;99.90;;;;;;5092540;28;20447;-68
2022/11/13 01:51:25;;;;;;;19.47;12.87;;;4.20;99.90;;;;;;5090802;28;20985;-68
2022/11/13 01:53:53;;;;;;;20.43;12.60;;;4.20;99.90;;;;;;5091118;28;21040;-68
2022/11/13 01:56:21;;;;;;;21.83;13.57;;;4.20;99.90;;;;;;5094739;28;20467;-68
2022/11/13 01:58:53;;;;;;;20.40;13.57;;;4.10;99.90;;;;;;5111261;28;20482;-68
2022/11/13 02:01:22;;;;;;;19.33;12.57;;;4.10;99.90;;;;;;5111596;28;20443;-68
2022/11/13 02:03:48;;;;;;;22.30;12.40;;;4.10;99.90;;;;;;5074381;28;20523;-68
2022/11/13 02:06:15;;;;;;;19.83;12.70;;;4.10;99.90;;;;;;5093327;28;21003;-68
2022/11/13 02:08:44;;;;;;;18.60;12.90;;;4.10;99.90;;;;;;5111069;28;20462;-68
2022/11/13 02:11:11;;;;;;;20.47;12.80;;;4.00;99.90;;;;;;5099326;28;20821;-68
2022/11/13 02:13:38;;;;;;;22.63;12.37;;;4.00;99.90;;;;;;5090795;28;20470;-68
2022/11/13 02:16:08;;;;;;;17.03;11.87;;;4.00;99.90;;;;;;5094222;28;20451;-68
2022/11/13 02:18:38;;;;;;;18.17;11.60;;;4.00;99.90;;;;;;5108591;28;20480;-68
2022/11/13 02:21:17;;;;;;;18.30;12.00;;;4.00;99.90;;;;;;5102384;27;20455;-68
2022/11/13 02:23:50;;;;;;;20.20;13.00;;;4.00;99.90;;;;;;5095183;28;20467;-68
2022/11/13 02:26:20;;;;;;;17.10;12.30;;;3.90;99.90;;;;;;5095872;28;20453;-68
2022/11/13 02:28:47;;;;;;;17.10;11.67;;;3.90;99.90;;;;;;5094946;28;20454;-68
2022/11/13 02:31:14;;;;;;;16.43;12.43;;;3.90;99.90;;;;;;5094098;28;20491;-68
2022/11/13 02:33:41;;;;;;;15.90;11.80;;;3.90;99.90;;;;;;5094135;28;20566;-67
2022/11/13 02:36:10;;;;;;;18.40;12.87;;;3.90;99.90;;;;;;5090112;28;20507;-68
2022/11/13 02:38:37;;;;;;;16.43;12.20;;;3.90;99.90;;;;;;5088052;28;20487;-68
2022/11/13 02:41:04;;;;;;;16.97;12.63;;;3.90;99.90;;;;;;5095396;28;20531;-68
2022/11/13 02:43:32;;;;;;;17.47;12.60;;;3.90;99.90;;;;;;5094202;28;20474;-68
2022/11/13 02:45:59;;;;;;;16.70;11.87;;;3.90;99.90;;;;;;5094385;28;20866;-68
2022/11/13 02:48:25;;;;;;;14.60;11.50;;;3.90;99.90;;;;;;5102686;28;20462;-68
2022/11/13 02:50:52;;;;;;;15.20;11.97;;;3.90;99.90;;;;;;5094165;28;20500;-67
2022/11/13 02:53:19;;;;;;;15.80;11.50;;;3.90;99.90;;;;;;5094486;28;20506;-68
2022/11/13 02:55:46;;;;;;;14.50;11.57;;;3.90;99.90;;;;;;5094064;28;20457;-68
2022/11/13 02:58:12;;;;;;;19.53;12.50;;;3.80;99.90;;;;;;5094191;28;20478;-68
2022/11/13 03:00:40;;;;;;;17.60;12.93;;;3.80;99.90;;;;;;5093844;28;20935;-68
2022/11/13 03:03:07;;;;;;;19.30;11.67;;;3.80;99.90;;;;;;5093705;28;21048;-68
2022/11/13 03:05:34;;;;;;;19.33;12.33;;;3.90;99.90;;;;;;5093522;28;20945;-68
2022/11/13 03:08:00;;;;;;;24.60;12.50;;;3.90;99.90;;;;;;5101844;28;20803;-68
2022/11/13 03:10:27;;;;;;;18.60;12.67;;;3.90;99.90;;;;;;5114094;28;20870;-68
2022/11/13 03:12:54;;;;;;;17.30;12.60;;;3.90;99.90;;;;;;5114473;27;20492;-68
2022/11/13 03:15:20;;;;;;;16.60;11.90;;;3.90;99.90;;;;;;5110125;28;20451;-68
2022/11/13 03:17:48;;;;;;;18.53;13.10;;;3.90;99.90;;;;;;5093434;28;21058;-68
2022/11/13 03:20:15;;;;;;;17.20;12.30;;;4.00;99.90;;;;;;5093750;28;20868;-68
2022/11/13 03:22:42;;;;;;;19.97;12.43;;;4.00;99.90;;;;;;5093413;28;20475;-68
2022/11/13 03:25:09;;;;;;;16.13;11.93;;;4.00;99.90;;;;;;5095650;28;20497;-68
2022/11/13 03:27:35;;;;;;;16.63;11.60;;;3.90;99.90;;;;;;5112340;28;20439;-68
2022/11/13 03:30:02;;;;;;;19.10;12.20;;;3.90;99.90;;;;;;5096260;28;20450;-68
2022/11/13 03:32:29;;;;;;;14.90;11.27;;;3.90;99.90;;;;;;5093154;28;20471;-68
2022/11/13 03:34:58;;;;;;;20.40;10.50;;;3.90;99.90;;;;;;5093265;28;20974;-68
2022/11/13 03:37:25;;;;;;;15.63;11.17;;;3.80;99.90;;;;;;5109257;28;20446;-68
2022/11/13 03:39:51;;;;;;;14.73;10.70;;;3.80;99.90;;;;;;5113458;28;20984;-68
2022/11/13 03:42:18;;;;;;;19.17;10.17;;;3.80;99.90;;;;;;5110602;28;20816;-68
2022/11/13 03:44:45;;;;;;;13.43;10.20;;;3.70;99.90;;;;;;5093235;28;20451;-68
2022/11/13 03:47:12;;;;;;;15.03;10.83;;;3.70;99.90;;;;;;5102205;28;20974;-68
2022/11/13 03:49:38;;;;;;;16.53;9.93;;;3.70;99.90;;;;;;5098297;28;20458;-68
2022/11/13 03:52:06;;;;;;;13.50;9.93;;;3.60;99.90;;;;;;5092954;28;20502;-68
2022/11/13 03:54:33;;;;;;;13.10;10.27;;;3.60;99.90;;;;;;5092970;28;20469;-68
2022/11/13 03:57:00;;;;;;;11.93;9.27;;;3.50;99.90;;;;;;5100719;28;20505;-68
2022/11/13 03:59:26;;;;;;;12.73;9.63;;;3.50;99.90;;;;;;5093172;28;20484;-68
2022/11/13 04:01:53;;;;;;;15.07;9.77;;;3.40;99.90;;;;;;5092731;28;20454;-68
2022/11/13 04:04:20;;;;;;;15.17;10.17;;;3.30;99.90;;;;;;5100117;28;20468;-68
2022/11/13 04:06:46;;;;;;;14.83;9.97;;;3.30;99.90;;;;;;5093218;28;20447;-68
2022/11/13 04:09:14;;;;;;;13.13;10.33;;;3.20;99.90;;;;;;5092209;28;20449;-68
2022/11/13 04:11:41;;;;;;;15.07;10.80;;;3.30;99.90;;;;;;5093008;28;20449;-68
2022/11/13 04:14:08;;;;;;;13.20;10.40;;;3.30;99.90;;;;;;5072847;28;20470;-69
2022/11/13 04:16:34;;;;;;;16.03;10.67;;;3.30;99.90;;;;;;5085139;28;20814;-68
2022/11/13 04:19:01;;;;;;;17.57;11.10;;;3.40;99.90;;;;;;5091956;28;20482;-69
2022/11/13 04:21:28;;;;;;;16.20;11.63;;;3.40;99.90;;;;;;5092659;28;20797;-69
2022/11/13 04:23:54;;;;;;;15.10;11.70;;;3.40;99.90;;;;;;5092588;28;20475;-69
2022/11/13 04:26:22;;;;;;;14.50;10.70;;;3.40;99.90;;;;;;5102638;28;20455;-69
2022/11/13 04:28:49;;;;;;;16.90;10.93;;;3.50;99.90;;;;;;5107723;28;20447;-69
2022/11/13 04:31:16;;;;;;;15.30;10.80;;;3.50;99.90;;;;;;5092420;28;20479;-69
2022/11/13 04:33:42;;;;;;;15.57;10.93;;;3.50;99.90;;;;;;5091778;28;20475;-69
2022/11/13 04:36:09;;;;;;;14.57;10.50;;;3.50;99.90;;;;;;5098315;28;20446;-68
2022/11/13 04:38:36;;;;;;;13.20;10.00;;;3.50;99.90;;;;;;5090997;28;20486;-68
2022/11/13 04:43:48;;;;;;;15.67;11.60;;;3.50;99.90;;;;;;5091968;28;20471;-69
2022/11/13 04:46:15;;;;;;;16.20;11.27;;;3.50;99.90;;;;;;5091913;28;20461;-68
2022/11/13 04:48:41;;;;;;;12.90;9.97;;;3.50;99.90;;;;;;5095692;28;20449;-68
2022/11/13 04:51:08;;;;;;;12.90;10.60;;;3.50;99.90;;;;;;5112422;28;20448;-69
2022/11/13 04:53:35;;;;;;;17.67;12.13;;;3.50;99.90;;;;;;5098600;28;20821;-69
2022/11/13 04:56:01;;;;;;;17.97;12.70;;;3.50;99.90;;;;;;5092778;28;20501;-68
2022/11/13 04:58:28;;;;;;;16.60;11.70;;;3.50;99.90;;;;;;5107654;28;20486;-69
2022/11/13 05:00:56;;;;;;;17.20;11.97;;;3.50;99.90;;;;;;5111945;28;20452;-69
2022/11/13 05:03:23;;;;;;;17.60;12.30;;;3.50;99.90;;;;;;5100075;28;20469;-69
2022/11/13 05:05:50;;;;;;;15.63;10.90;;;3.50;99.90;;;;;;5096434;28;20480;-69
2022/11/13 05:08:16;;;;;;;16.57;11.57;;;3.50;99.90;;;;;;5112545;28;20589;-69
2022/11/13 05:10:44;;;;;;;15.07;11.50;;;3.40;99.90;;;;;;5092441;28;20450;-69
2022/11/13 05:13:10;;;;;;;16.60;11.97;;;3.40;99.90;;;;;;5092775;28;20466;-69
2022/11/13 05:15:37;;;;;;;16.70;11.57;;;3.40;99.90;;;;;;5094449;28;20455;-69
2022/11/13 05:18:05;;;;;;;15.87;10.93;;;3.40;99.90;;;;;;5111299;28;20502;-69
2022/11/13 05:20:32;;;;;;;15.87;10.47;;;3.40;99.90;;;;;;5111696;28;20453;-70
2022/11/13 05:22:58;;;;;;;17.20;11.20;;;3.40;99.90;;;;;;5112266;28;20463;-69
2022/11/13 05:25:25;;;;;;;20.60;11.80;;;3.40;99.90;;;;;;5100619;28;20539;-69
2022/11/13 05:27:52;;;;;;;13.20;10.20;;;3.40;99.90;;;;;;5103625;28;20836;-69
2022/11/13 05:30:19;;;;;;;14.87;10.80;;;3.30;99.90;;;;;;5111960;28;20452;-69
2022/11/13 05:32:45;;;;;;;16.13;11.83;;;3.30;99.90;;;;;;5098284;28;20480;-69
2022/11/13 05:35:14;;;;;;;13.67;10.17;;;3.30;99.90;;;;;;5091198;28;20447;-69
2022/11/13 05:37:40;;;;;;;16.47;11.63;;;3.30;99.90;;;;;;5090591;28;20452;-69
2022/11/13 05:40:08;;;;;;;17.30;11.10;;;3.40;99.90;;;;;;5091467;28;20492;-69
2022/11/13 05:42:34;;;;;;;20.47;11.70;;;3.40;99.90;;;;;;5110528;28;20477;-69
2022/11/13 05:45:01;;;;;;;16.10;10.97;;;3.40;99.90;;;;;;5101379;28;20449;-69
2022/11/13 05:47:28;;;;;;;15.33;10.53;;;3.40;99.90;;;;;;5091251;28;20456;-69
2022/11/13 05:49:54;;;;;;;15.37;11.10;;;3.40;99.90;;;;;;5093190;28;20444;-69
2022/11/13 05:52:22;;;;;;;15.60;11.03;;;3.40;99.90;;;;;;5095146;28;20464;-68
2022/11/13 05:54:49;;;;;;;16.00;10.77;;;3.40;99.90;;;;;;5094941;28;20483;-68
2022/11/13 05:57:16;;;;;;;14.73;11.33;;;3.40;99.90;;;;;;5096172;28;20453;-68
2022/11/13 05:59:43;;;;;;;14.13;10.43;;;3.40;99.90;;;;;;5094853;28;20483;-69
2022/11/13 06:02:09;;;;;;;15.70;10.97;;;3.40;99.90;;;;;;5095203;28;20452;-68
2022/11/13 06:04:36;;;;;;;14.03;10.60;;;3.40;99.90;;;;;;5095127;28;20445;-68
2022/11/13 06:07:03;;;;;;;14.60;11.50;;;3.40;99.90;;;;;;5094826;28;20477;-68
2022/11/13 06:09:31;;;;;;;13.80;9.83;;;3.30;99.90;;;;;;5098089;28;20448;-68
2022/11/13 06:11:57;;;;;;;13.80;10.73;;;3.30;99.90;;;;;;5094766;28;20459;-68
2022/11/13 06:14:24;;;;;;;14.97;9.80;;;3.30;99.90;;;;;;5094191;28;20476;-68
2022/11/13 06:16:51;;;;;;;16.33;11.17;;;3.20;99.90;;;;;;5095190;28;20463;-68
2022/11/13 06:19:18;;;;;;;16.73;11.20;;;3.20;99.90;;;;;;5103881;27;20488;-68
2022/11/13 06:21:45;;;;;;;19.20;11.77;;;3.20;99.90;;;;;;5094203;28;20458;-69
2022/11/13 06:24:12;;;;;;;13.50;10.63;;;3.20;99.90;;;;;;5094348;28;20470;-69
2022/11/13 06:26:41;;;;;;;18.00;11.40;;;3.20;99.90;;;;;;5104491;28;20869;-70
2022/11/13 06:29:10;;;;;;;15.40;10.67;;;3.20;99.90;;;;;;5101865;28;20456;-69
2022/11/13 06:31:37;;;;;;;13.83;10.53;;;3.30;99.90;;;;;;5094717;28;20458;-70
2022/11/13 06:34:05;;;;;;;14.27;10.90;;;3.30;99.90;;;;;;5093921;28;20478;-70
2022/11/13 06:36:33;;;;;;;14.47;10.33;;;3.30;99.90;;;;;;5106086;28;20472;-70
2022/11/13 06:39:00;;;;;;;15.37;10.57;;;3.30;99.90;;;;;;5102536;28;21031;-69
2022/11/13 06:41:30;;;;;;;16.63;10.93;;;3.30;99.90;;;;;;5094221;28;20452;-67
2022/11/13 06:43:58;;;;;;;17.00;10.83;;;3.20;99.90;;;;;;5094549;28;20466;-69
2022/11/13 06:46:27;;;;;;;15.67;10.50;;;3.20;99.90;;;;;;5101663;28;20531;-68
2022/11/13 06:48:54;;;;;;;16.13;11.00;;;3.40;99.90;;;;;;5113996;28;20471;-68
2022/11/13 06:51:22;;;;;;;12.73;9.20;;;3.70;99.90;;;;;;5114563;28;20442;-68
2022/11/13 06:53:49;;;;;;;13.97;10.47;;;4.20;99.90;;;;;;5114865;28;20817;-68
2022/11/13 06:56:17;;;;;;;13.83;9.53;;;4.60;99.90;;;;;;5095245;28;20462;-67
2022/11/13 06:58:44;;;;;;;11.10;9.03;;;4.70;99.90;;;;;;5105767;28;20507;-68
2022/11/13 07:01:13;;;;;;;12.47;8.70;;;4.60;99.90;;;;;;5094133;28;20956;-68
2022/11/13 07:03:40;;;;;;;16.30;9.97;;;4.50;99.90;;;;;;5093763;28;20520;-68
2022/11/13 07:06:09;;;;;;;13.33;9.50;;;4.70;99.90;;;;;;5098268;28;20454;-68
2022/11/13 07:08:36;;;;;;;12.73;8.73;;;5.20;99.90;;;;;;5096485;28;20867;-68
2022/11/13 07:11:02;;;;;;;11.00;8.40;;;5.90;99.90;;;;;;5092076;28;20455;-69
2022/11/13 07:13:29;;;;;;;7.67;6.90;;;6.40;99.90;;;;;;5092819;28;20590;-68
2022/11/13 07:16:01;;;;;;;10.47;8.20;;;6.80;99.90;;;;;;5093647;28;20950;-69
2022/11/13 07:18:29;;;;;;;9.60;7.80;;;6.90;99.90;;;;;;5092821;28;20462;-68
2022/11/13 07:20:56;;;;;;;26.17;8.53;;;6.80;99.90;;;;;;5092435;28;20955;-68
2022/11/13 07:23:24;;;;;;;12.40;8.13;;;6.40;99.90;;;;;;5092249;28;20469;-68
2022/11/13 07:25:53;;;;;;;8.67;7.77;;;6.20;99.90;;;;;;5092520;28;20475;-69
2022/11/13 07:28:19;;;;;;;10.33;8.43;;;5.70;99.90;;;;;;5096099;28;20515;-68
2022/11/13 07:30:46;;;;;;;11.60;8.80;;;5.30;99.90;;;;;;5092577;28;20450;-69
2022/11/13 07:33:13;;;;;;;15.53;9.20;;;5.00;99.90;;;;;;5092689;28;20490;-68
2022/11/13 07:35:41;;;;;;;12.80;9.27;;;4.80;99.90;;;;;;5097349;28;20454;-68
2022/11/13 07:38:08;;;;;;;14.53;9.37;;;4.60;99.90;;;;;;5105615;28;20514;-68
2022/11/13 07:40:34;;;;;;;11.70;9.90;;;4.50;99.90;;;;;;5099307;28;20479;-69
2022/11/13 07:43:03;;;;;;;10.73;9.20;;;4.90;99.90;;;;;;5098404;28;20474;-68
2022/11/13 07:45:29;;;;;;;10.70;9.03;;;6.10;99.90;;;;;;5091022;28;20466;-69
2022/11/13 07:47:59;;;;;;;9.50;8.20;;;7.40;99.90;;;;;;5095037;28;20447;-69
2022/11/13 07:50:26;;;;;;;8.83;6.93;;;8.60;99.90;;;;;;5091520;28;20454;-69
2022/11/13 07:52:57;;;;;;;8.23;7.33;;;9.70;99.90;;;;;;5089633;28;20475;-69
2022/11/13 07:55:24;;;;;;;8.93;7.50;;;10.70;99.90;;;;;;5092556;28;20539;-69
2022/11/13 07:57:51;;;;;;;12.50;7.23;;;11.40;99.90;;;;;;5092072;28;20454;-69
2022/11/13 08:00:18;;;;;;;10.70;7.70;;;11.90;99.90;;;;;;5093223;28;20493;-69
2022/11/13 08:02:46;;;;;;;8.97;6.60;;;12.10;99.90;;;;;;5092276;28;20516;-69
2022/11/13 08:05:13;;;;;;;14.07;7.17;;;12.20;99.90;;;;;;5092520;28;20463;-69
2022/11/13 08:07:40;;;;;;;7.00;6.30;;;12.20;99.90;;;;;;5092754;28;20454;-69
2022/11/13 08:10:09;;;;;;;11.97;6.40;;;11.90;99.90;;;;;;5093834;28;20455;-69
2022/11/13 08:12:36;;;;;;;7.73;7.03;;;11.40;99.90;;;;;;5073391;28;20472;-68
2022/11/13 08:15:02;;;;;;;8.87;8.00;;;10.70;99.90;;;;;;5092797;28;20451;-69
2022/11/13 08:17:29;;;;;;;8.87;7.37;;;10.20;99.90;;;;;;5106522;28;20856;-68
2022/11/13 08:19:56;;;;;;;9.10;7.80;;;9.80;99.90;;;;;;5110870;28;20484;-69
2022/11/13 08:22:22;;;;;;;8.23;7.37;;;9.70;99.90;;;;;;5097752;28;20466;-69
2022/11/13 08:24:52;;;;;;;10.33;7.83;;;9.60;99.90;;;;;;5099942;28;20443;-69
2022/11/13 08:27:20;;;;;;;8.40;7.27;;;9.50;99.90;;;;;;5094892;28;21009;-69
2022/11/13 08:29:47;;;;;;;9.00;7.70;;;9.50;99.90;;;;;;5112778;28;21000;-69
2022/11/13 08:32:14;;;;;;;8.70;7.80;;;9.60;99.90;;;;;;5111826;28;20455;-69
2022/11/13 08:34:41;;;;;;;8.17;7.40;;;9.70;99.90;;;;;;5074649;28;20454;-68
2022/11/13 08:37:07;;;;;;;9.37;7.17;;;9.70;99.90;;;;;;5091884;28;20451;-68
2022/11/13 08:39:34;;;;;;;8.87;7.90;;;9.90;99.90;;;;;;5091313;28;20476;-68
2022/11/13 08:42:01;;;;;;;8.57;7.77;;;10.20;99.90;;;;;;5098688;28;20859;-69
2022/11/13 08:44:29;;;;;;;10.30;7.80;;;10.40;99.90;;;;;;5091128;28;20475;-69
2022/11/13 08:46:56;;;;;;;8.10;7.30;;;10.60;99.90;;;;;;5091573;28;20444;-69
2022/11/13 08:49:22;;;;;;;11.27;8.10;;;10.80;99.90;;;;;;5091399;28;20451;-69
2022/11/13 08:51:49;;;;;;;8.47;7.53;;;10.90;99.90;;;;;;5091241;28;20456;-69
2022/11/13 08:54:16;;;;;;;7.80;7.03;;;11.00;99.90;;;;;;5091698;28;20465;-69
2022/11/13 08:56:43;;;;;;;8.77;7.87;;;11.00;99.90;;;;;;5092257;28;20446;-70
2022/11/13 08:59:10;;;;;;;10.13;7.17;;;11.10;99.90;;;;;;5091175;28;20943;-69
2022/11/13 09:01:38;;;;;;;7.70;6.90;;;11.30;99.90;;;;;;5091278;28;20447;-69
2022/11/13 09:04:05;;;;;;;11.00;8.30;;;11.40;99.90;;;;;;5090833;28;20468;-70
2022/11/13 09:06:32;;;;;;;9.63;7.83;;;11.50;99.90;;;;;;5094617;28;20563;-69
2022/11/13 09:08:59;;;;;;;8.60;7.77;;;11.50;99.90;;;;;;5093687;28;20512;-69
2022/11/13 09:11:26;;;;;;;9.57;7.90;;;11.50;99.90;;;;;;5090886;28;20451;-68
2022/11/13 09:13:53;;;;;;;10.00;7.63;;;11.50;99.90;;;;;;5106612;28;20508;-69
2022/11/13 09:16:20;;;;;;;8.20;7.40;;;11.60;99.90;;;;;;5089547;28;20497;-69
2022/11/13 09:18:50;;;;;;;8.97;7.50;;;11.50;99.90;;;;;;5095277;28;20448;-69
2022/11/13 09:21:17;;;;;;;9.67;7.60;;;11.70;99.90;;;;;;5091162;28;20483;-68
2022/11/13 09:23:44;;;;;;;9.13;7.63;;;11.70;99.90;;;;;;5090467;28;20466;-78
2022/11/13 09:26:11;;;;;;;9.18;6.60;;;11.90;99.90;;;;;;5089369;28;20445;-69
2022/11/13 09:28:38;;;;;;;8.40;7.60;;;12.00;99.90;;;;;;5097021;28;20277;-70
2022/11/13 09:31:05;;;;;;;9.03;7.07;;;12.20;99.90;;;;;;5088871;28;20504;-69
2022/11/13 09:33:32;;;;;;;8.90;7.83;;;12.50;99.90;;;;;;5089736;28;20467;-69
2022/11/13 09:36:00;;;;;;;7.77;7.07;;;12.60;99.90;;;;;;5089947;28;20455;-69
2022/11/13 09:38:28;;;;;;;8.30;7.50;;;12.70;99.90;;;;;;5095673;28;20451;-70
2022/11/13 09:40:58;;;;;;;9.73;7.10;;;12.90;99.90;;;;;;5089735;28;21017;-70
2022/11/13 09:43:31;;;;;;;7.90;7.10;;;13.10;99.90;;;;;;5090011;28;20471;-70
2022/11/13 09:46:02;;;;;;;8.90;7.50;;;13.10;99.90;;;;;;5089920;28;20452;-71
2022/11/13 09:48:34;;;;;;;7.90;7.10;;;13.00;99.90;;;;;;5089263;28;20454;-70
2022/11/13 09:51:06;;;;;;;9.70;7.70;;;12.90;99.90;;;;;;5089419;28;20443;-70
2022/11/13 09:53:35;;;;;;;7.63;6.93;;;12.80;99.90;;;;;;5083630;28;20470;-70
2022/11/13 09:56:18;;;;;;;9.23;6.70;;;12.80;99.90;;;;;;5089688;28;20481;-70
2022/11/13 09:58:50;;;;;;;7.17;6.50;;;13.00;99.90;;;;;;5092055;28;20508;-70
2022/11/13 10:01:28;;;;;;;7.90;7.10;;;13.10;99.90;;;;;;5086308;28;20549;-68
2022/11/13 10:04:00;;;;;;;7.57;6.87;;;13.20;99.90;;;;;;5085593;28;21749;-68
2022/11/13 10:06:44;;;;;;;8.30;7.50;;;13.30;99.90;;;;;;5086996;28;20478;-69
2022/11/13 10:09:21;;;;;;;8.00;7.20;;;13.40;99.90;;;;;;5086038;28;20459;-69
2022/11/13 10:11:53;;;;;;;8.60;6.93;;;13.60;99.90;;;;;;5085395;28;20443;-69
2022/11/13 10:14:24;;;;;;;7.70;7.00;;;13.60;99.90;;;;;;5088885;28;20482;-69
2022/11/13 10:16:55;;;;;;;8.00;7.20;;;13.70;99.90;;;;;;5078166;28;20474;-69
2022/11/13 10:19:26;;;;;;;8.90;7.30;;;13.70;99.90;;;;;;5094423;28;20453;-70
2022/11/13 10:22:02;;;;;;;8.10;7.30;;;13.80;99.90;;;;;;5089333;28;20803;-70
2022/11/13 10:24:36;;;;;;;7.90;6.77;;;13.90;99.90;;;;;;5091588;28;20463;-70
2022/11/13 10:27:08;;;;;;;8.57;7.57;;;13.90;99.90;;;;;;5089549;28;20454;-70
2022/11/13 10:29:35;;;;;;;8.00;6.70;;;13.90;99.90;;;;;;5088237;28;20447;-70
2022/11/13 10:32:16;;;;;;;7.73;6.87;;;13.80;99.90;;;;;;5089432;28;20452;-70
2022/11/13 10:34:45;;;;;;;7.63;6.87;;;13.90;99.90;;;;;;5084688;28;20454;-70
2022/11/13 10:37:26;;;;;;;6.67;5.97;;;14.00;99.90;;;;;;5092592;28;20454;-69
2022/11/13 10:39:52;;;;;;;7.43;6.57;;;14.00;99.90;;;;;;5089800;28;20491;-70
2022/11/13 10:42:22;;;;;;;8.73;6.93;;;14.20;99.90;;;;;;5093301;28;20460;-69
2022/11/13 10:44:54;;;;;;;6.67;6.10;;;14.30;99.90;;;;;;5095442;28;20486;-69
2022/11/13 10:47:23;;;;;;;10.33;6.43;;;14.20;99.90;;;;;;5092132;28;20462;-70
2022/11/13 10:49:49;;;;;;;8.03;6.93;;;14.20;99.90;;;;;;5095910;28;20622;-69
2022/11/13 10:52:19;;;;;;;12.40;6.50;;;14.40;99.90;;;;;;5092539;28;21079;-70
2022/11/13 10:54:47;;;;;;;7.83;6.80;;;14.50;99.90;;;;;;5093390;28;20542;-69
2022/11/13 10:57:27;;;;;;;9.13;5.93;;;14.70;99.90;;;;;;5098114;28;20446;-69
2022/11/13 10:59:55;;;;;;;11.07;6.17;;;14.90;99.90;;;;;;5097416;28;20479;-69
2022/11/13 11:02:23;;;;;;;6.83;6.23;;;15.20;99.90;;;;;;5092617;28;20499;-70
2022/11/13 11:05:01;;;;;;;6.57;6.00;;;15.60;99.90;;;;;;5092900;28;21101;-69
2022/11/13 11:07:30;;;;;;;6.17;5.63;;;15.80;99.90;;;;;;5097286;28;20447;-70
2022/11/13 11:09:56;;;;;;;6.97;6.30;;;16.00;99.90;;;;;;5097124;28;20448;-70
2022/11/13 11:12:23;;;;;;;7.30;6.10;;;16.20;99.90;;;;;;5091799;28;20418;-69
2022/11/13 11:15:09;;;;;;;9.07;5.90;;;16.30;99.90;;;;;;5092947;28;20421;-69
2022/11/13 11:17:43;;;;;;;7.03;6.20;;;16.40;99.90;;;;;;5087869;28;20444;-70
2022/11/13 11:20:23;;;;;;;9.83;7.10;;;16.40;99.90;;;;;;5092067;28;20449;-69
2022/11/13 11:22:55;;;;;;;7.20;6.03;;;16.40;99.90;;;;;;5089165;28;20436;-69
2022/11/13 11:25:34;;;;;;;5.57;5.07;;;16.40;99.90;;;;;;5103177;28;20435;-73
2022/11/13 11:28:06;;;;;;;7.33;6.53;;;16.40;99.90;;;;;;5106201;28;20200;-65
2022/11/13 11:30:42;;;;;;;7.20;6.50;;;16.50;99.90;;;;;;5094301;28;20769;-65
2022/11/13 11:33:13;;;;;;;6.83;5.80;;;16.70;99.90;;;;;;5091621;28;20491;-65
2022/11/13 11:35:44;;;;;;;8.70;6.17;;;16.70;99.90;;;;;;5086302;28;20444;-66
2022/11/13 11:38:21;;;;;;;7.03;6.10;;;16.70;99.90;;;;;;5099494;28;20860;-66
2022/11/13 11:40:51;;;;;;;6.67;6.07;;;16.70;99.90;;;;;;5093524;28;20465;-65
2022/11/13 11:43:24;;;;;;;6.37;5.77;;;16.70;99.90;;;;;;5092055;28;20866;-66
2022/11/13 11:45:51;;;;;;;7.40;6.37;;;16.60;99.90;;;;;;5093491;28;20447;-65
2022/11/13 11:48:21;;;;;;;7.13;6.10;;;16.70;99.90;;;;;;5092695;28;20430;-65
2022/11/13 11:50:54;;;;;;;7.60;6.47;;;16.90;99.90;;;;;;5092586;28;20444;-66
2022/11/13 11:53:46;;;;;;;7.30;6.43;;;17.20;99.90;;;;;;5091990;28;20467;-66
2022/11/13 11:56:23;;;;;;;7.33;6.60;;;17.50;99.90;;;;;;5092546;28;20437;-65
2022/11/13 11:59:05;;;;;;;10.37;7.20;;;17.60;99.90;;;;;;5091008;28;20425;-65
2022/11/13 12:01:50;;;;;;;9.80;6.70;;;17.70;99.90;;;;;;5091502;28;20498;-66
2022/11/13 12:04:28;;;;;;;7.00;6.33;;;17.60;99.90;;;;;;5091434;28;20861;-65
2022/11/13 12:07:06;;;;;;;9.80;6.50;;;17.40;99.90;;;;;;5088369;28;20435;-65
2022/11/13 12:09:38;;;;;;;7.73;6.63;;;17.40;99.90;;;;;;5091011;28;20624;-65
2022/11/13 12:12:13;;;;;;;7.77;6.97;;;17.20;99.90;;;;;;5094288;28;20805;-65
2022/11/13 12:14:49;;;;;;;7.83;6.80;;;17.00;99.90;;;;;;5086148;28;20418;-65
2022/11/13 12:17:33;;;;;;;8.97;7.50;;;17.00;99.90;;;;;;5092041;28;20468;-65
2022/11/13 12:20:13;;;;;;;7.25;6.10;;;17.10;99.90;;;;;;5092688;28;20448;-65
2022/11/13 12:22:50;;;;;;;10.47;8.03;;;17.10;99.90;;;;;;5085619;28;20290;-65
2022/11/13 12:25:27;;;;;;;9.03;6.90;;;17.10;99.90;;;;;;5094744;28;20483;-65
2022/11/13 12:27:58;;;;;;;9.20;7.20;;;17.30;99.90;;;;;;5097412;28;20443;-65
2022/11/13 12:30:35;;;;;;;9.93;7.00;;;17.20;99.90;;;;;;5092770;28;20426;-65
2022/11/13 12:33:11;;;;;;;7.70;6.30;;;17.00;99.90;;;;;;5090579;28;20471;-65
2022/11/13 12:35:39;;;;;;;5.90;5.30;;;16.80;99.90;;;;;;5090531;28;20436;-65
2022/11/13 12:38:18;;;;;;;6.67;6.17;;;16.50;99.90;;;;;;5098895;28;20193;-66
2022/11/13 12:40:55;;;;;;;9.90;6.70;;;16.40;99.90;;;;;;5094944;28;20453;-70
2022/11/13 12:43:33;;;;;;;7.90;5.53;;;16.50;99.90;;;;;;5091641;28;20449;-68
2022/11/13 12:46:05;;;;;;;10.17;7.57;;;16.80;99.90;;;;;;5091911;28;20433;-69
2022/11/13 12:48:34;;;;;;;8.50;5.90;;;16.90;99.90;;;;;;5095623;28;20427;-69
2022/11/13 12:51:03;;;;;;;7.30;5.67;;;17.00;99.90;;;;;;5091134;28;20501;-68